Været på Ålesund Lufhavn, Vigra (ENAL)

 

Time for time, neste 48 timer:

Detaljert varsel fra yr.no - 48 timer

Vindprognose for Breisundet:

Vindvarsel

Upper Winds 3000 fot akkurat nå:

ENAL akkurat nå:

  • METAR: 191550Z 22029KT 5000 -RA SCT011 BKN028 09/09 Q1002 REDZ
  • TAF: TAF 191400Z 1915/1922 23028KT 8000 -RA FEW015 BKN030 TEMPO 1915/1922 24035G45KT 4000 SHRA BKN012 SCT018CB